Time;durP1;ratioP1;P1;durP2;ratioP2;P2;SDS_P1;SDS_P2;PMS_P1;PMS_P2;Temp;Humidity;BMP_temperature;BMP_pressure;BME280_temperature;BME280_humidity;BME280_pressure;Samples;Min_cycle;Max_cycle;Signal;HPM_P1;HPM_P2
2023/03/24 00:01:46;;;;;;;15.30;2.60;;;9.40;99.90;;;;;;4974642;28;20203;-70
2023/03/24 00:04:13;;;;;;;26.30;2.70;;;9.40;99.90;;;;;;4974606;28;20225;-70
2023/03/24 00:06:38;;;;;;;16.17;2.53;;;9.40;99.90;;;;;;4974917;28;20218;-70
2023/03/24 00:09:05;;;;;;;22.07;2.60;;;9.30;99.90;;;;;;4974028;28;20647;-70
2023/03/24 00:11:33;;;;;;;22.17;3.13;;;9.20;99.90;;;;;;4974605;28;20176;-71
2023/03/24 00:13:59;;;;;;;16.30;2.73;;;9.30;99.90;;;;;;4974046;28;20184;-71
2023/03/24 00:16:25;;;;;;;25.07;3.47;;;9.20;99.90;;;;;;4974087;28;20186;-70
2023/03/24 00:18:54;;;;;;;21.40;2.67;;;9.20;99.90;;;;;;4974517;28;20176;-70
2023/03/24 00:21:23;;;;;;;18.53;3.13;;;9.10;99.90;;;;;;4973849;28;20183;-70
2023/03/24 00:23:53;;;;;;;23.57;3.20;;;9.10;99.90;;;;;;4974537;28;20184;-70
2023/03/24 00:26:18;;;;;;;25.57;3.20;;;9.10;99.90;;;;;;4974295;28;20663;-70
2023/03/24 00:28:47;;;;;;;20.37;3.07;;;7.90;99.90;;;;;;4974843;28;20238;-70
2023/03/24 00:31:16;;;;;;;28.57;4.47;;;;;;;;;;4974605;28;20175;-70
2023/03/24 00:33:43;;;;;;;20.20;2.57;;;9.10;99.90;;;;;;4974409;28;20176;-70
2023/03/24 00:36:10;;;;;;;18.90;2.97;;;9.10;99.90;;;;;;4973922;28;20187;-70
2023/03/24 00:38:37;;;;;;;17.90;2.53;;;9.00;99.90;;;;;;4974278;28;20171;-70
2023/03/24 00:41:05;;;;;;;24.80;2.93;;;9.10;99.90;;;;;;4973210;28;20180;-70
2023/03/24 00:43:30;;;;;;;29.70;3.63;;;9.00;99.90;;;;;;4974678;28;20227;-70
2023/03/24 00:46:02;;;;;;;21.57;3.07;;;8.90;99.90;;;;;;4973917;28;20168;-70
2023/03/24 00:48:29;;;;;;;22.20;3.43;;;8.90;99.90;;;;;;4974530;28;20215;-70
2023/03/24 00:50:55;;;;;;;16.63;2.13;;;8.90;99.90;;;;;;4973567;28;20186;-70
2023/03/24 00:53:28;;;;;;;21.40;3.07;;;;;;;;;;4956251;28;20190;-71
2023/03/24 00:55:55;;;;;;;24.53;2.90;;;9.00;99.90;;;;;;4956025;28;20168;-70
2023/03/24 00:58:20;;;;;;;24.47;2.67;;;9.00;99.90;;;;;;4973381;28;20631;-70
2023/03/24 01:00:48;;;;;;;18.83;2.70;;;9.00;99.90;;;;;;4974026;28;20175;-70
2023/03/24 01:03:15;;;;;;;21.27;3.63;;;9.00;99.90;;;;;;4974292;28;20217;-70
2023/03/24 01:05:41;;;;;;;18.33;2.80;;;8.90;99.90;;;;;;4972970;28;20183;-70
2023/03/24 01:08:09;;;;;;;26.67;3.17;;;8.90;99.90;;;;;;4956451;28;20168;-70
2023/03/24 01:10:49;;;;;;;25.20;3.50;;;8.90;99.90;;;;;;4974079;28;20183;-70
2023/03/24 01:13:16;;;;;;;25.73;3.13;;;8.90;99.90;;;;;;4976630;28;20190;-70
2023/03/24 01:15:42;;;;;;;27.10;2.60;;;8.90;99.90;;;;;;4955601;28;20187;-70
2023/03/24 01:18:08;;;;;;;24.13;3.40;;;8.90;99.90;;;;;;4962857;28;20179;-71
2023/03/24 01:20:35;;;;;;;20.10;3.00;;;8.90;99.90;;;;;;4992946;28;20222;-70
2023/03/24 01:23:03;;;;;;;25.00;3.40;;;8.70;99.90;;;;;;4992795;28;20215;-72
2023/03/24 01:25:30;;;;;;;15.00;3.20;;;8.80;99.90;;;;;;4993290;28;20180;-72
2023/03/24 01:27:55;;;;;;;27.67;3.30;;;8.80;99.90;;;;;;4993093;28;20186;-72
2023/03/24 01:30:24;;;;;;;27.70;3.27;;;8.70;99.90;;;;;;4985544;28;20176;-72
2023/03/24 01:32:50;;;;;;;24.33;2.90;;;8.50;99.90;;;;;;4973945;28;20172;-72
2023/03/24 01:35:16;;;;;;;18.03;2.87;;;8.60;99.90;;;;;;4972995;28;20231;-70
2023/03/24 01:37:42;;;;;;;20.73;3.30;;;8.70;99.90;;;;;;4970609;28;20180;-70
2023/03/24 01:40:10;;;;;;;24.03;2.87;;;8.50;99.90;;;;;;4955258;28;20187;-71
2023/03/24 01:42:38;;;;;;;18.57;3.00;;;8.50;99.90;;;;;;4973256;28;20761;-71
2023/03/24 01:45:37;;;;;;;16.17;2.43;;;8.40;99.90;;;;;;4973058;28;20179;-73
2023/03/24 01:48:06;;;;;;;22.17;2.93;;;8.50;99.90;;;;;;4973113;28;20188;-73
2023/03/24 01:50:32;;;;;;;33.70;2.47;;;8.50;99.90;;;;;;4971945;28;20168;-73
2023/03/24 01:53:00;;;;;;;23.57;2.47;;;8.50;99.90;;;;;;4972188;28;20171;-73
2023/03/24 01:55:26;;;;;;;35.73;4.00;;;8.60;99.90;;;;;;4973217;28;20226;-73
2023/03/24 01:57:56;;;;;;;28.77;3.07;;;8.50;99.90;;;;;;4972809;28;20270;-74
2023/03/24 02:00:22;;;;;;;21.20;3.40;;;8.50;99.90;;;;;;4971906;28;20172;-74
2023/03/24 02:02:53;;;;;;;29.30;3.40;;;8.50;99.90;;;;;;4971913;28;20208;-74
2023/03/24 02:05:22;;;;;;;21.20;2.87;;;8.40;99.90;;;;;;4972307;28;20258;-74
2023/03/24 02:07:57;;;;;;;19.10;2.73;;;8.40;99.90;;;;;;4986794;28;20184;-74
2023/03/24 02:10:23;;;;;;;16.07;2.73;;;8.40;99.90;;;;;;4992696;28;20266;-74
2023/03/24 02:12:49;;;;;;;17.97;2.73;;;8.40;99.90;;;;;;4991756;28;20270;-73
2023/03/24 02:15:17;;;;;;;28.47;3.40;;;8.40;99.90;;;;;;4991183;28;20712;-73
2023/03/24 02:18:17;;;;;;;26.70;2.90;;;8.40;99.90;;;;;;4992362;28;20182;-73
2023/03/24 02:21:35;;;;;;;28.83;3.13;;;8.30;99.90;;;;;;4984449;28;20209;-72
2023/03/24 02:24:31;;;;;;;18.10;3.00;;;8.30;99.90;;;;;;4974890;28;20191;-76
2023/03/24 02:27:08;;;;;;;20.37;2.87;;;8.30;99.90;;;;;;4992319;28;20190;-76
2023/03/24 02:29:55;;;;;;;28.17;3.03;;;8.20;99.90;;;;;;4991711;28;20318;-76
2023/03/24 02:32:32;;;;;;;15.07;2.27;;;8.20;99.90;;;;;;4991183;28;20172;-76
2023/03/24 02:35:14;;;;;;;20.87;3.30;;;8.20;99.90;;;;;;4973736;28;20218;-76
2023/03/24 02:38:01;;;;;;;15.17;2.27;;;8.10;99.90;;;;;;4991787;28;20669;-76
2023/03/24 02:41:11;;;;;;;24.20;3.20;;;8.20;99.90;;;;;;4990494;28;20175;-76
2023/03/24 02:43:49;;;;;;;22.33;2.83;;;8.10;99.90;;;;;;4991089;28;20447;-77
2023/03/24 02:46:26;;;;;;;20.93;2.40;;;8.10;99.90;;;;;;4990894;28;20662;-77
2023/03/24 02:49:20;;;;;;;27.83;2.90;;;8.10;99.90;;;;;;4991253;28;20175;-76
2023/03/24 02:51:50;;;;;;;20.17;2.70;;;8.10;99.90;;;;;;4991068;28;20245;-72
2023/03/24 02:54:28;;;;;;;12.30;2.13;;;8.10;99.90;;;;;;4991137;28;20167;-72
2023/03/24 02:57:04;;;;;;;19.43;2.43;;;8.10;99.90;;;;;;4990995;28;20266;-72
2023/03/24 02:59:43;;;;;;;18.27;3.00;;;8.10;99.90;;;;;;4991164;28;20222;-72
2023/03/24 03:02:18;;;;;;;19.77;2.37;;;8.10;99.90;;;;;;4990511;28;20287;-72
2023/03/24 03:04:59;;;;;;;17.67;2.77;;;8.10;99.90;;;;;;4990786;28;20171;-73
2023/03/24 03:07:32;;;;;;;16.80;2.70;;;8.10;99.90;;;;;;4990047;28;20210;-72
2023/03/24 03:10:14;;;;;;;15.57;2.50;;;8.10;99.90;;;;;;4990224;28;20221;-72
2023/03/24 03:12:42;;;;;;;13.43;2.37;;;8.00;99.90;;;;;;4989979;28;20205;-73
2023/03/24 03:15:25;;;;;;;17.23;2.30;;;8.30;99.90;;;;;;4991344;28;20260;-72
2023/03/24 03:17:58;;;;;;;19.07;2.67;;;8.00;99.90;;;;;;4989834;28;20187;-73
2023/03/24 03:20:29;;;;;;;17.77;2.73;;;8.10;99.90;;;;;;4990643;28;20167;-73
2023/03/24 03:23:15;;;;;;;13.07;3.00;;;8.10;99.90;;;;;;4989785;28;20214;-75
2023/03/24 03:25:49;;;;;;;21.93;2.67;;;8.00;99.90;;;;;;4989804;28;20174;-75
2023/03/24 03:28:19;;;;;;;29.60;2.90;;;8.00;99.90;;;;;;4986242;28;20184;-75
2023/03/24 03:30:49;;;;;;;18.03;2.80;;;8.10;99.90;;;;;;4981499;28;20180;-75
2023/03/24 03:33:24;;;;;;;16.97;2.10;;;8.00;99.90;;;;;;4969674;28;20330;-76
2023/03/24 03:36:07;;;;;;;16.60;2.53;;;8.00;99.90;;;;;;4985553;28;20229;-76
2023/03/24 03:39:02;;;;;;;15.23;2.60;;;8.00;99.90;;;;;;4989097;28;20175;-75
2023/03/24 03:41:29;;;;;;;18.57;2.80;;;8.00;99.90;;;;;;4989207;28;20182;-77
2023/03/24 03:43:54;;;;;;;18.90;2.47;;;7.90;99.90;;;;;;4989095;28;20203;-76
2023/03/24 03:46:20;;;;;;;17.47;2.33;;;7.90;99.90;;;;;;4987762;28;20203;-76
2023/03/24 03:48:46;;;;;;;22.13;2.87;;;7.90;99.90;;;;;;4971006;28;20186;-76
2023/03/24 03:51:13;;;;;;;12.13;1.67;;;7.90;99.90;;;;;;4969915;28;20211;-76
2023/03/24 03:53:55;;;;;;;19.67;2.63;;;8.10;99.90;;;;;;4969854;28;20172;-76
2023/03/24 03:56:27;;;;;;;12.37;2.47;;;8.00;99.90;;;;;;4970291;28;20192;-76
2023/03/24 03:58:52;;;;;;;23.93;2.57;;;8.00;99.90;;;;;;4968781;28;20546;-76
2023/03/24 04:01:22;;;;;;;19.70;2.80;;;8.00;99.90;;;;;;4970690;28;20168;-71
2023/03/24 04:04:36;;;;;;;15.77;2.63;;;8.00;99.90;;;;;;4969774;28;20689;-71
2023/03/24 04:07:18;;;;;;;16.83;2.53;;;8.10;99.90;;;;;;4969250;28;20203;-71
2023/03/24 04:10:10;;;;;;;12.40;2.47;;;8.10;99.90;;;;;;4970725;28;20356;-70
2023/03/24 04:12:48;;;;;;;15.00;2.23;;;8.10;99.90;;;;;;4970752;28;20179;-72
2023/03/24 04:15:35;;;;;;;18.33;2.33;;;8.10;99.90;;;;;;4970891;28;20183;-72
2023/03/24 04:18:20;;;;;;;19.70;2.73;;;8.00;99.90;;;;;;4970521;28;20271;-70
2023/03/24 04:21:19;;;;;;;17.87;2.53;;;8.10;99.90;;;;;;4971559;28;20184;-70
2023/03/24 04:24:17;;;;;;;14.93;2.33;;;8.10;99.90;;;;;;4947815;28;20216;-70
2023/03/24 04:26:59;;;;;;;16.37;2.70;;;8.10;99.90;;;;;;4952788;28;20593;-72
2023/03/24 04:30:01;;;;;;;22.53;2.97;;;8.10;99.90;;;;;;4970534;28;20180;-70
2023/03/24 04:32:48;;;;;;;19.40;2.63;;;8.10;99.90;;;;;;4957252;28;20265;-70
2023/03/24 04:35:25;;;;;;;18.03;3.00;;;8.10;99.90;;;;;;4970154;28;20231;-70
2023/03/24 04:37:53;;;;;;;23.33;2.53;;;8.10;99.90;;;;;;4971522;28;20198;-69
2023/03/24 04:40:21;;;;;;;21.33;3.20;;;8.10;99.90;;;;;;4993371;28;20656;-69
2023/03/24 04:42:51;;;;;;;22.13;2.90;;;8.10;99.90;;;;;;4993988;28;20211;-70
2023/03/24 04:45:18;;;;;;;25.77;2.90;;;8.20;99.90;;;;;;4993408;28;20183;-70
2023/03/24 04:47:48;;;;;;;24.13;2.70;;;8.20;99.90;;;;;;4994383;28;20179;-70
2023/03/24 04:50:36;;;;;;;30.83;3.33;;;8.10;99.90;;;;;;4993600;28;20164;-70
2023/03/24 04:53:05;;;;;;;21.60;3.43;;;8.00;99.90;;;;;;4993354;28;20175;-70
2023/03/24 04:55:33;;;;;;;31.07;3.27;;;7.90;99.90;;;;;;4992706;28;20638;-70
2023/03/24 04:57:59;;;;;;;16.60;2.93;;;8.00;99.90;;;;;;4992683;28;20175;-70
2023/03/24 05:00:24;;;;;;;23.67;3.23;;;8.00;99.90;;;;;;4992900;28;20270;-71
2023/03/24 05:02:53;;;;;;;18.73;2.73;;;7.90;99.90;;;;;;4992306;28;20682;-71
2023/03/24 05:05:19;;;;;;;20.20;2.70;;;8.10;99.90;;;;;;4992464;28;20280;-71
2023/03/24 05:07:45;;;;;;;16.60;2.93;;;8.00;99.90;;;;;;4992511;28;20175;-72
2023/03/24 05:10:11;;;;;;;24.63;2.60;;;8.00;99.90;;;;;;4993009;28;20642;-72
2023/03/24 05:12:37;;;;;;;26.70;4.10;;;;;;;;;;4993583;28;20642;-72
2023/03/24 05:15:03;;;;;;;23.60;2.33;;;8.00;99.90;;;;;;4993885;28;20642;-72
2023/03/24 05:17:28;;;;;;;24.97;2.87;;;8.00;99.90;;;;;;4992397;28;20253;-72
2023/03/24 05:19:54;;;;;;;24.97;3.03;;;8.10;99.90;;;;;;4993046;28;20530;-72
2023/03/24 05:22:20;;;;;;;21.07;2.63;;;8.20;99.90;;;;;;4993597;28;20202;-72
2023/03/24 05:24:46;;;;;;;20.87;2.87;;;8.10;99.90;;;;;;4992340;28;20207;-72
2023/03/24 05:27:11;;;;;;;22.33;2.73;;;8.20;99.90;;;;;;4992910;28;20175;-72
2023/03/24 05:29:37;;;;;;;21.33;2.73;;;8.70;99.90;;;;;;4992404;28;20175;-72
2023/03/24 05:32:02;;;;;;;22.03;2.30;;;8.30;99.90;;;;;;4992603;28;20600;-72
2023/03/24 05:34:28;;;;;;;19.17;3.23;;;8.30;99.90;;;;;;4992052;28;20227;-72
2023/03/24 05:36:54;;;;;;;30.83;3.63;;;8.40;99.90;;;;;;4975057;28;20685;-72
2023/03/24 05:39:20;;;;;;;23.40;2.87;;;8.40;99.90;;;;;;4991999;28;20179;-72
2023/03/24 05:41:45;;;;;;;14.37;2.57;;;8.30;99.90;;;;;;4993090;28;20682;-70
2023/03/24 05:44:11;;;;;;;19.17;2.57;;;8.60;99.90;;;;;;4992556;28;20728;-70
2023/03/24 05:46:37;;;;;;;29.07;3.27;;;8.30;99.90;;;;;;4991884;28;20584;-70
2023/03/24 05:49:03;;;;;;;34.63;3.80;;;;;;;;;;4992902;28;20182;-70
2023/03/24 05:51:28;;;;;;;19.77;2.80;;;8.30;99.90;;;;;;4992261;28;20222;-71
2023/03/24 05:53:54;;;;;;;24.73;3.33;;;8.50;99.90;;;;;;4993259;28;20184;-71
2023/03/24 05:56:20;;;;;;;20.23;3.10;;;8.30;99.90;;;;;;4991957;28;20241;-71
2023/03/24 05:58:46;;;;;;;24.03;2.37;;;8.30;99.90;;;;;;4992450;28;20650;-71
2023/03/24 06:01:11;;;;;;;23.37;3.97;;;8.30;99.90;;;;;;4991626;28;20759;-71
2023/03/24 06:03:38;;;;;;;23.67;3.40;;;8.40;99.90;;;;;;4992041;28;20217;-71
2023/03/24 06:06:08;;;;;;;27.93;2.43;;;8.30;99.90;;;;;;4991699;28;20172;-71
2023/03/24 06:08:35;;;;;;;20.93;2.90;;;8.40;99.90;;;;;;4988305;28;20231;-71
2023/03/24 06:11:02;;;;;;;22.00;2.53;;;8.40;99.90;;;;;;4980387;28;20203;-71
2023/03/24 06:13:31;;;;;;;19.97;3.27;;;8.50;99.90;;;;;;4981208;28;20702;-71
2023/03/24 06:15:58;;;;;;;27.37;3.33;;;8.40;99.90;;;;;;4992294;28;20179;-71
2023/03/24 06:18:29;;;;;;;24.27;3.20;;;8.40;99.90;;;;;;4978254;28;20190;-71
2023/03/24 06:20:55;;;;;;;20.30;2.80;;;8.40;99.90;;;;;;4972375;28;20164;-71
2023/03/24 06:23:27;;;;;;;20.30;2.60;;;8.40;99.90;;;;;;4972006;28;20322;-71
2023/03/24 06:25:54;;;;;;;20.30;2.33;;;8.50;99.90;;;;;;4971973;28;20187;-71
2023/03/24 06:28:21;;;;;;;26.80;3.60;;;8.60;99.90;;;;;;4971782;28;20563;-71
2023/03/24 06:30:48;;;;;;;19.37;3.20;;;8.50;99.90;;;;;;4986027;28;20600;-71
2023/03/24 06:33:15;;;;;;;30.40;3.23;;;8.80;99.90;;;;;;4991033;28;20179;-73
2023/03/24 06:35:40;;;;;;;21.93;2.60;;;8.40;99.90;;;;;;4990234;28;20231;-73
2023/03/24 06:38:06;;;;;;;15.40;2.50;;;8.40;99.90;;;;;;4991477;28;20174;-73
2023/03/24 06:40:33;;;;;;;16.87;2.53;;;10.20;99.90;;;;;;4990445;28;20238;-73
2023/03/24 06:43:00;;;;;;;27.27;3.60;;;8.50;99.90;;;;;;4991394;28;20219;-72
2023/03/24 06:45:25;;;;;;;12.87;2.03;;;8.50;99.90;;;;;;4991393;28;20163;-71
2023/03/24 06:47:54;;;;;;;18.70;2.83;;;8.40;99.90;;;;;;4991586;28;20183;-72
2023/03/24 06:50:21;;;;;;;16.13;2.67;;;8.70;99.90;;;;;;4991463;28;20322;-72
2023/03/24 06:52:46;;;;;;;25.17;3.27;;;8.70;99.90;;;;;;4991219;28;20175;-71
2023/03/24 06:55:12;;;;;;;19.60;2.93;;;8.90;99.90;;;;;;4990872;28;20178;-72
2023/03/24 06:57:38;;;;;;;20.03;2.10;;;8.70;99.90;;;;;;4990357;28;20175;-72
2023/03/24 07:00:05;;;;;;;14.80;2.07;;;8.70;99.90;;;;;;4973515;28;20175;-72
2023/03/24 07:02:34;;;;;;;7.20;1.40;;;8.90;99.90;;;;;;4989857;28;20540;-71
2023/03/24 07:05:04;;;;;;;23.93;2.93;;;8.90;99.90;;;;;;4974047;28;20175;-71
2023/03/24 07:07:30;;;;;;;16.97;2.50;;;9.00;99.90;;;;;;4957032;28;20180;-71
2023/03/24 07:09:56;;;;;;;21.80;2.57;;;8.90;99.90;;;;;;4972394;28;20255;-71
2023/03/24 07:12:21;;;;;;;16.20;3.03;;;9.00;99.90;;;;;;4971149;28;20271;-72
2023/03/24 07:14:47;;;;;;;17.03;2.30;;;9.10;99.90;;;;;;4972318;28;20179;-72
2023/03/24 07:17:12;;;;;;;27.73;2.60;;;9.20;99.90;;;;;;4970976;28;20706;-71
2023/03/24 07:19:38;;;;;;;17.80;2.30;;;;;;;;;;4971387;28;20183;-72
2023/03/24 07:22:07;;;;;;;20.20;2.27;;;;;;;;;;4971439;28;20203;-71
2023/03/24 07:24:33;;;;;;;11.47;1.83;;;;;;;;;;4971683;28;20187;-71
2023/03/24 07:26:58;;;;;;;29.47;3.70;;;9.40;99.90;;;;;;4971010;28;20553;-71
2023/03/24 07:29:24;;;;;;;21.90;2.47;;;9.40;99.90;;;;;;4971864;28;20187;-71
2023/03/24 07:31:50;;;;;;;18.93;2.33;;;9.50;99.90;;;;;;4970637;28;20199;-71
2023/03/24 07:34:15;;;;;;;18.13;2.53;;;9.50;99.90;;;;;;4971159;28;20685;-72
2023/03/24 07:36:41;;;;;;;16.43;2.73;;;9.70;99.90;;;;;;4971144;28;20182;-71
2023/03/24 07:39:08;;;;;;;23.93;2.73;;;9.70;99.90;;;;;;4971105;28;20270;-72
2023/03/24 07:41:34;;;;;;;16.13;2.33;;;;;;;;;;4971069;28;20171;-70
2023/03/24 07:44:00;;;;;;;17.80;2.63;;;9.80;99.90;;;;;;4971440;28;20741;-70
2023/03/24 07:46:25;;;;;;;20.27;2.67;;;10.00;99.90;;;;;;4971691;28;20211;-69
2023/03/24 07:48:51;;;;;;;23.47;2.93;;;9.90;99.90;;;;;;4971748;28;20538;-70
2023/03/24 07:51:18;;;;;;;19.97;2.33;;;10.00;99.90;;;;;;4971074;28;20191;-74
2023/03/24 07:53:46;;;;;;;26.97;3.20;;;10.20;99.90;;;;;;4971722;28;20635;-74
2023/03/24 07:56:12;;;;;;;16.80;3.13;;;;;;;;;;4974202;28;20685;-72
2023/03/24 07:58:39;;;;;;;20.70;2.73;;;;;;;;;;4979886;28;20187;-71
2023/03/24 08:01:10;;;;;;;9.13;1.50;;;10.20;99.90;;;;;;4953920;28;20275;-71
2023/03/24 08:03:36;;;;;;;18.80;1.87;;;10.20;99.90;;;;;;4960997;28;20210;-69
2023/03/24 08:06:03;;;;;;;22.77;3.13;;;10.20;99.90;;;;;;4990808;28;20195;-71
2023/03/24 08:08:30;;;;;;;8.23;1.80;;;10.40;99.90;;;;;;4991062;28;20182;-72
2023/03/24 08:10:56;;;;;;;15.07;2.37;;;10.40;99.90;;;;;;4990828;28;20203;-71
2023/03/24 08:13:22;;;;;;;20.57;2.60;;;10.50;99.90;;;;;;4990894;28;20171;-72
2023/03/24 08:15:48;;;;;;;21.67;3.13;;;10.60;99.90;;;;;;4994165;28;20198;-72
2023/03/24 08:18:14;;;;;;;18.53;2.70;;;10.60;99.90;;;;;;4994132;28;20262;-72
2023/03/24 08:20:40;;;;;;;29.07;3.33;;;10.70;99.90;;;;;;4995019;28;20211;-74
2023/03/24 08:23:07;;;;;;;18.50;2.23;;;10.90;99.90;;;;;;4993911;28;20246;-71
2023/03/24 08:25:37;;;;;;;17.00;2.07;;;10.90;99.90;;;;;;4994399;28;20187;-73
2023/03/24 08:28:03;;;;;;;13.43;1.97;;;10.90;99.90;;;;;;4993450;28;20649;-73
2023/03/24 08:30:29;;;;;;;23.97;3.27;;;11.00;99.90;;;;;;4994176;28;21437;-70
2023/03/24 08:32:58;;;;;;;14.43;2.30;;;10.90;99.90;;;;;;4993356;28;20650;-72
2023/03/24 08:35:31;;;;;;;21.07;2.33;;;11.00;99.90;;;;;;4990949;28;20223;-73
2023/03/24 08:38:00;;;;;;;26.30;2.43;;;11.10;99.90;;;;;;4992534;28;20171;-71
2023/03/24 08:40:27;;;;;;;17.17;2.60;;;11.20;99.90;;;;;;4992630;28;20187;-71
2023/03/24 08:42:56;;;;;;;15.67;2.37;;;11.60;99.90;;;;;;4992264;28;20203;-72
2023/03/24 08:45:26;;;;;;;13.17;2.07;;;13.20;99.90;;;;;;4975705;28;20186;-71
2023/03/24 08:47:52;;;;;;;14.10;1.73;;;14.30;99.90;;;;;;4992686;28;20179;-71
2023/03/24 08:50:23;;;;;;;13.53;1.90;;;15.10;99.90;;;;;;4992402;28;20167;-71
2023/03/24 08:52:49;;;;;;;24.73;2.97;;;15.20;99.90;;;;;;4975553;28;20183;-71
2023/03/24 08:55:16;;;;;;;24.70;2.85;;;15.40;99.90;;;;;;4991961;28;20187;-70
2023/03/24 08:57:42;;;;;;;16.35;2.50;;;15.60;99.90;;;;;;4992247;28;20179;-69
2023/03/24 09:00:13;;;;;;;17.08;2.63;;;14.10;99.90;;;;;;4988879;28;20642;-70
2023/03/24 09:02:50;;;;;;;16.50;2.50;;;14.20;99.90;;;;;;4981458;28;20227;-71
2023/03/24 09:05:20;;;;;;;16.27;2.90;;;14.90;99.90;;;;;;4986546;28;20179;-70
2023/03/24 09:07:46;;;;;;;21.23;2.72;;;15.10;99.90;;;;;;4975693;28;20746;-71
2023/03/24 09:10:13;;;;;;;17.70;2.17;;;14.60;99.90;;;;;;4993230;28;20239;-72
2023/03/24 09:12:40;;;;;;;16.70;2.78;;;14.00;99.90;;;;;;4993643;28;20211;-72
2023/03/24 09:15:07;;;;;;;16.63;2.35;;;13.80;99.90;;;;;;4993357;28;20226;-70
2023/03/24 09:17:34;;;;;;;12.43;1.85;;;15.00;99.90;;;;;;4993392;28;20190;-72
2023/03/24 09:20:00;;;;;;;13.02;2.47;;;16.00;99.90;;;;;;4993145;28;20179;-70
2023/03/24 09:22:25;;;;;;;8.73;1.20;;;15.80;99.90;;;;;;4992607;28;20330;-70
2023/03/24 09:24:51;;;;;;;15.65;2.05;;;15.50;99.90;;;;;;4974597;28;20199;-70
2023/03/24 09:27:17;;;;;;;14.85;2.20;;;15.90;99.90;;;;;;4978849;28;20180;-69
2023/03/24 09:29:43;;;;;;;12.35;1.83;;;15.90;99.90;;;;;;4991277;28;20171;-68
2023/03/24 09:32:09;;;;;;;14.98;2.10;;;14.20;99.90;;;;;;4990662;28;20171;-68
2023/03/24 09:34:37;;;;;;;9.98;1.75;;;14.10;99.90;;;;;;4991992;28;20338;-68
2023/03/24 09:37:06;;;;;;;13.45;2.42;;;13.60;99.90;;;;;;4992674;28;20250;-65
2023/03/24 09:39:35;;;;;;;14.82;2.10;;;13.60;99.90;;;;;;4991326;28;20206;-69
2023/03/24 09:42:02;;;;;;;12.75;2.30;;;13.90;99.90;;;;;;4991221;28;20618;-68
2023/03/24 09:44:37;;;;;;;14.13;1.80;;;14.30;99.90;;;;;;4985913;28;20199;-69
2023/03/24 09:47:25;;;;;;;9.40;1.30;;;14.50;99.90;;;;;;4991547;28;20261;-69
2023/03/24 09:49:52;;;;;;;8.48;1.50;;;14.60;99.90;;;;;;4989825;28;20205;-68
2023/03/24 09:52:33;;;;;;;11.93;1.90;;;14.40;99.90;;;;;;4992932;28;20171;-68
2023/03/24 09:55:01;;;;;;;19.73;2.63;;;14.90;99.90;;;;;;4991873;28;20654;-68
2023/03/24 09:57:37;;;;;;;13.80;2.30;;;15.20;99.90;;;;;;4992061;28;20183;-68
2023/03/24 10:00:27;;;;;;;14.73;2.00;;;14.90;99.90;;;;;;4965733;28;20190;-69
2023/03/24 10:02:58;;;;;;;16.63;2.58;;;16.50;99.90;;;;;;4992316;28;20685;-69
2023/03/24 10:05:37;;;;;;;11.27;1.60;;;16.50;99.90;;;;;;4992127;28;20270;-68
2023/03/24 10:08:27;;;;;;;9.30;1.13;;;16.40;99.90;;;;;;4992230;28;20257;-68
2023/03/24 10:11:17;;;;;;;5.30;1.35;;;16.60;99.90;;;;;;4976125;28;20194;-68
2023/03/24 10:13:55;;;;;;;7.47;2.08;;;16.10;99.90;;;;;;4991922;28;20314;-68
2023/03/24 10:16:49;;;;;;;6.70;1.45;;;17.60;99.90;;;;;;4990268;28;20665;-67
2023/03/24 10:19:43;;;;;;;11.13;1.63;;;16.50;99.90;;;;;;4991838;28;20190;-68
2023/03/24 10:22:24;;;;;;;13.90;2.25;;;17.40;99.90;;;;;;4938677;28;20214;-69
2023/03/24 10:25:12;;;;;;;8.50;1.27;;;18.00;99.90;;;;;;4972424;28;20172;-68
2023/03/24 10:27:57;;;;;;;9.10;1.33;;;17.20;99.90;;;;;;4978124;28;20183;-67
2023/03/24 10:30:28;;;;;;;7.10;1.42;;;17.70;99.90;;;;;;4992472;28;20176;-68
2023/03/24 10:32:54;;;;;;;4.55;1.20;;;17.40;99.90;;;;;;4990618;28;20682;-69
2023/03/24 10:35:34;;;;;;;7.50;1.10;;;17.80;99.90;;;;;;4992077;28;20314;-69
2023/03/24 10:38:08;;;;;;;8.77;1.20;;;16.50;99.90;;;;;;4991749;28;20191;-68
2023/03/24 10:40:33;;;;;;;7.50;1.35;;;16.30;99.90;;;;;;4991669;28;20258;-68
2023/03/24 10:43:02;;;;;;;14.77;1.67;;;15.00;99.90;;;;;;4980072;28;20305;-69
2023/03/24 10:45:32;;;;;;;12.25;1.95;;;14.60;99.90;;;;;;4989764;28;20467;-69
2023/03/24 10:48:00;;;;;;;9.32;1.70;;;15.80;99.90;;;;;;4972680;28;20186;-69
2023/03/24 10:50:28;;;;;;;11.55;1.08;;;16.60;99.90;;;;;;4990833;28;20179;-69
2023/03/24 10:52:54;;;;;;;11.18;1.30;;;16.70;99.90;;;;;;4990305;28;20665;-69
2023/03/24 10:55:23;;;;;;;7.90;1.80;;;17.00;99.90;;;;;;4972779;28;20258;-69
2023/03/24 10:57:53;;;;;;;14.35;2.00;;;18.10;99.90;;;;;;4990231;28;20174;-69
2023/03/24 11:00:28;;;;;;;12.25;1.90;;;18.40;99.90;;;;;;4973553;28;20222;-69
2023/03/24 11:03:04;;;;;;;5.07;1.30;;;19.20;99.90;;;;;;4991819;28;20210;-72
2023/03/24 11:05:35;;;;;;;8.02;1.38;;;19.20;99.90;;;;;;4991842;28;20179;-69
2023/03/24 11:08:16;;;;;;;8.73;1.35;;;18.80;99.90;;;;;;4991833;28;20171;-69
2023/03/24 11:10:43;;;;;;;7.07;1.38;;;17.90;99.90;;;;;;4991797;28;20708;-70
2023/03/24 11:13:25;;;;;;;7.80;1.45;;;18.30;99.90;;;;;;4991759;28;20167;-70
2023/03/24 11:16:14;;;;;;;7.63;1.58;;;17.10;99.90;;;;;;4991845;28;20183;-70
2023/03/24 11:18:57;;;;;;;2.97;0.75;;;17.20;99.90;;;;;;4991728;28;20178;-70
2023/03/24 11:21:23;;;;;;;7.40;1.20;;;16.10;99.90;;;;;;4991503;28;20680;-70
2023/03/24 11:23:49;;;;;;;6.40;0.95;;;16.10;99.90;;;;;;4991606;28;20558;-70
2023/03/24 11:26:21;;;;;;;9.27;1.27;;;16.00;99.90;;;;;;4974116;28;20171;-69
2023/03/24 11:28:55;;;;;;;8.85;1.25;;;15.30;99.90;;;;;;4991688;28;20186;-69
2023/03/24 11:31:24;;;;;;;10.07;1.20;;;14.80;99.90;;;;;;4991522;28;20178;-69
2023/03/24 11:34:15;;;;;;;10.48;1.70;;;15.70;99.90;;;;;;4991468;28;20172;-69
2023/03/24 11:37:04;;;;;;;4.72;1.05;;;16.80;99.90;;;;;;4983332;28;20670;-69
2023/03/24 11:39:31;;;;;;;6.53;1.17;;;17.50;99.90;;;;;;4991436;28;20693;-69
2023/03/24 11:42:10;;;;;;;7.07;1.80;;;17.80;99.90;;;;;;4973976;28;20179;-69
2023/03/24 11:44:52;;;;;;;4.93;1.30;;;18.30;99.90;;;;;;4991319;28;20178;-69
2023/03/24 11:47:29;;;;;;;5.60;1.33;;;18.80;99.90;;;;;;4991569;28;20187;-69
2023/03/24 11:50:10;;;;;;;5.80;1.55;;;19.00;99.90;;;;;;4994453;28;20178;-69
2023/03/24 11:52:35;;;;;;;6.68;1.67;;;17.40;99.90;;;;;;4995336;28;20251;-69
2023/03/24 11:55:11;;;;;;;6.72;1.48;;;17.40;99.90;;;;;;4977792;28;20215;-69
2023/03/24 11:58:01;;;;;;;10.60;1.77;;;16.70;99.90;;;;;;4977856;28;20178;-69
2023/03/24 12:00:34;;;;;;;9.50;1.90;;;16.20;99.90;;;;;;4995314;28;20202;-69
2023/03/24 12:03:41;;;;;;;8.70;1.65;;;15.40;99.90;;;;;;4995101;28;20284;-69
2023/03/24 12:06:06;;;;;;;7.68;1.23;;;14.10;99.90;;;;;;4989407;28;20658;-69
2023/03/24 12:08:58;;;;;;;7.45;1.63;;;14.30;99.90;;;;;;4986439;28;20182;-69
2023/03/24 12:11:38;;;;;;;10.70;1.90;;;14.00;99.90;;;;;;4986787;28;20194;-69
2023/03/24 12:14:04;;;;;;;10.70;1.65;;;15.10;99.90;;;;;;4975708;28;20172;-69
2023/03/24 12:16:46;;;;;;;12.15;1.55;;;15.30;99.90;;;;;;4975796;28;20582;-69
2023/03/24 12:19:49;;;;;;;6.57;1.23;;;14.90;99.90;;;;;;4975524;28;20172;-69
2023/03/24 12:22:18;;;;;;;12.40;1.95;;;14.50;99.90;;;;;;4975275;28;20204;-68
2023/03/24 12:24:53;;;;;;;9.13;1.75;;;14.60;99.90;;;;;;4985711;28;20171;-69
2023/03/24 12:27:28;;;;;;;8.43;1.42;;;15.10;99.90;;;;;;4994864;28;20182;-71
2023/03/24 12:30:01;;;;;;;12.73;1.85;;;16.90;99.90;;;;;;4994849;28;20254;-70
2023/03/24 12:32:54;;;;;;;9.52;1.50;;;18.00;99.90;;;;;;4994706;28;20573;-70
2023/03/24 12:35:44;;;;;;;11.93;2.03;;;17.50;99.90;;;;;;4976870;28;20234;-69
2023/03/24 12:38:32;;;;;;;8.93;2.10;;;16.10;99.90;;;;;;4995003;28;20171;-70
2023/03/24 12:41:26;;;;;;;16.10;2.35;;;15.30;99.90;;;;;;4994631;28;20211;-70
2023/03/24 12:44:39;;;;;;;10.55;1.65;;;14.20;99.90;;;;;;4976967;28;20222;-69
2023/03/24 12:47:13;;;;;;;14.27;2.60;;;13.60;99.90;;;;;;4934339;29;20196;-69
2023/03/24 12:50:10;;;;;;;11.48;2.13;;;13.20;99.90;;;;;;4990451;28;20186;-70
2023/03/24 12:52:41;;;;;;;11.03;2.03;;;12.30;99.90;;;;;;4994378;28;20171;-69
2023/03/24 12:55:24;;;;;;;15.63;1.80;;;12.40;99.90;;;;;;4994298;28;20179;-70
2023/03/24 12:58:02;;;;;;;9.03;1.63;;;12.10;99.90;;;;;;4994473;28;20183;-70
2023/03/24 13:00:33;;;;;;;11.33;1.63;;;11.80;99.90;;;;;;4989965;28;20222;-70
2023/03/24 13:03:05;;;;;;;13.23;2.13;;;11.50;99.90;;;;;;4974655;28;20211;-71
2023/03/24 13:05:40;;;;;;;11.33;1.53;;;11.20;99.90;;;;;;4974741;28;20171;-71
2023/03/24 13:08:15;;;;;;;14.00;1.90;;;11.10;99.90;;;;;;4974633;28;20194;-71
2023/03/24 13:10:42;;;;;;;14.63;2.03;;;11.10;99.90;;;;;;4974683;28;20171;-71
2023/03/24 13:13:44;;;;;;;17.00;1.90;;;11.20;99.90;;;;;;4974584;28;20183;-71
2023/03/24 13:16:27;;;;;;;11.20;1.83;;;13.10;99.90;;;;;;4933787;29;20709;-71